KLHM/LHM METAR and TAF weather

Enter ICAO airport designator
Station Type Date Time Source
KLHM METAR 2022/01/29 01:35 UTC NOAA

KLHM 290135Z AUTO 03003KT 10SM CLR 12/03 A3024 RMK AO1


Station Type Date Time Source
KLHM Decoded METAR 2022/01/29 01:35 UTC NOAA

Station name not available
Jan 28, 2022 - 08:35 PM EST / 2022.01.29 0135 UTC
Wind: from the NNE (030 degrees) at 3 MPH (3 KT):0
Visibility: 10 mile(s):0
Sky conditions: clear
Temperature: 53 F (12 C)
Dew Point: 37 F (3 C)
Relative Humidity: 54%
Pressure (altimeter): 30.24 in. Hg (1024 hPa)
ob: KLHM 290135Z AUTO 03003KT 10SM CLR 12/03 A3024 RMK AO1
cycle: 1

Station Type Date Time Source
KLHM TAF UTC NOAA

Error!

Example: see airport list